Time,TemperatureF,DewpointF,PressureIn,WindDirection,WindDirectionDegrees,WindSpeedMPH,WindSpeedGustMPH,Humidity,HourlyPrecipIn,Conditions,Clouds,dailyrainin,SolarRadiationWatts/m^2,SoftwareType,DateUTC
2013-07-26 00:00:00,61.3,61.3,30.03,East,99,4.0,4.0,100,0.00,,,0.00,0,Wunderground v.1.15,2013-07-26 04:00:00,
2013-07-26 00:10:00,61.2,61.2,30.03,North,6,0.0,0.0,100,0.00,,,0.00,0,Wunderground v.1.15,2013-07-26 04:10:00,
2013-07-26 00:15:00,61.3,61.3,30.03,NNW,343,5.0,5.0,100,0.00,,,0.00,0,Wunderground v.1.15,2013-07-26 04:15:00,
2013-07-26 00:20:00,61.3,61.3,30.03,NE,54,0.0,0.0,100,0.00,,,0.00,0,Wunderground v.1.15,2013-07-26 04:20:00,
2013-07-26 00:30:00,61.3,61.3,30.03,NE,36,1.0,1.0,100,0.00,,,0.00,0,Wunderground v.1.15,2013-07-26 04:30:00,
2013-07-26 00:40:00,61.4,61.4,30.03,North,0,0.0,0.0,100,0.00,,,0.00,0,Wunderground v.1.15,2013-07-26 04:40:00,
2013-07-26 00:50:00,61.4,61.4,30.02,NNE,29,2.0,2.0,100,0.00,,,0.00,0,Wunderground v.1.15,2013-07-26 04:50:00,
2013-07-26 00:55:00,61.4,61.4,30.03,NNE,25,0.0,2.0,100,0.00,,,0.00,0,Wunderground v.1.15,2013-07-26 04:55:00,
2013-07-26 01:00:00,61.5,61.5,30.02,North,11,2.0,2.0,100,0.00,,,0.00,0,Wunderground v.1.15,2013-07-26 05:00:00,
2013-07-26 01:10:00,61.5,61.5,30.02,NNE,13,0.0,0.0,100,0.00,,,0.00,0,Wunderground v.1.15,2013-07-26 05:10:00,
2013-07-26 01:20:00,61.4,61.4,30.01,NNW,344,3.0,3.0,100,0.00,,,0.00,0,Wunderground v.1.15,2013-07-26 05:20:00,
2013-07-26 01:30:00,61.4,61.4,30.01,NNE,25,1.0,1.0,100,0.00,,,0.00,0,Wunderground v.1.15,2013-07-26 05:30:00,
2013-07-26 01:40:00,61.6,61.6,30.01,NNE,13,0.0,0.0,100,0.00,,,0.00,0,Wunderground v.1.15,2013-07-26 05:40:00,
2013-07-26 01:50:00,61.4,61.4,30.01,NNE,13,2.0,2.0,100,0.00,,,0.00,0,Wunderground v.1.15,2013-07-26 05:50:00,
2013-07-26 01:55:00,61.4,61.4,30.00,NNE,30,2.0,2.0,100,0.00,,,0.00,0,Wunderground v.1.15,2013-07-26 05:55:00,
2013-07-26 02:10:00,61.4,61.4,30.01,NE,43,0.0,0.0,100,0.00,,,0.00,0,Wunderground v.1.15,2013-07-26 06:10:00,
2013-07-26 02:20:00,61.4,61.4,30.00,North,357,2.0,2.0,100,0.00,,,0.00,0,Wunderground v.1.15,2013-07-26 06:20:00,
2013-07-26 02:30:00,61.4,61.4,30.00,ESE,113,0.0,0.0,100,0.00,,,0.00,0,Wunderground v.1.15,2013-07-26 06:30:00,
2013-07-26 02:40:00,61.4,61.4,29.99,NNE,23,2.0,2.0,100,0.00,,,0.00,0,Wunderground v.1.15,2013-07-26 06:40:00,
2013-07-26 02:50:00,61.5,61.5,29.99,NNE,20,1.0,1.0,100,0.00,,,0.00,0,Wunderground v.1.15,2013-07-26 06:50:00,
2013-07-26 03:00:00,61.5,61.5,29.99,NNW,344,1.0,1.0,100,0.00,,,0.00,0,Wunderground v.1.15,2013-07-26 07:00:00,
2013-07-26 03:06:00,61.5,61.5,29.99,North,7,6.0,6.0,100,0.00,,,0.00,0,Wunderground v.1.15,2013-07-26 07:06:00,
2013-07-26 03:15:00,61.4,61.4,29.99,North,1,5.0,5.0,100,0.00,,,0.00,0,Wunderground v.1.15,2013-07-26 07:15:00,
2013-07-26 03:25:00,61.6,61.6,29.99,North,11,2.0,2.0,100,0.00,,,0.00,0,Wunderground v.1.15,2013-07-26 07:25:00,
2013-07-26 03:35:00,61.6,61.6,29.99,NNW,334,0.0,0.0,100,0.00,,,0.00,0,Wunderground v.1.15,2013-07-26 07:35:00,
2013-07-26 03:45:00,61.5,61.5,30.00,NNW,341,3.0,3.0,100,0.00,,,0.00,0,Wunderground v.1.15,2013-07-26 07:45:00,
2013-07-26 03:55:00,61.6,61.6,29.99,NNW,346,4.0,4.0,100,0.00,,,0.00,0,Wunderground v.1.15,2013-07-26 07:55:00,
2013-07-26 04:10:00,61.7,61.7,29.99,NNW,346,2.0,2.0,100,0.00,,,0.00,0,Wunderground v.1.15,2013-07-26 08:10:00,
2013-07-26 04:20:00,61.7,61.7,29.98,NNE,16,0.0,0.0,100,0.00,,,0.00,0,Wunderground v.1.15,2013-07-26 08:20:00,
2013-07-26 04:25:00,61.6,61.6,29.98,North,7,0.0,0.0,100,0.00,,,0.00,0,Wunderground v.1.15,2013-07-26 08:25:00,
2013-07-26 04:35:00,61.6,61.6,29.98,North,10,0.0,2.0,100,0.00,,,0.00,0,Wunderground v.1.15,2013-07-26 08:35:00,
2013-07-26 04:45:00,61.7,61.7,29.98,NW,320,0.0,0.0,100,0.00,,,0.00,0,Wunderground v.1.15,2013-07-26 08:45:00,
2013-07-26 04:55:00,61.7,61.7,29.98,North,353,5.0,5.0,100,0.00,,,0.00,0,Wunderground v.1.15,2013-07-26 08:55:00,
2013-07-26 05:00:00,61.7,61.7,29.99,NNW,330,4.0,4.0,100,0.00,,,0.00,0,Wunderground v.1.15,2013-07-26 09:00:00,
2013-07-26 05:10:00,61.7,61.7,29.98,NW,322,2.0,2.0,100,0.00,,,0.00,0,Wunderground v.1.15,2013-07-26 09:10:00,
2013-07-26 05:20:00,61.7,61.7,29.98,NNE,27,3.0,3.0,100,0.00,,,0.00,0,Wunderground v.1.15,2013-07-26 09:20:00,
2013-07-26 05:30:00,61.8,61.8,29.99,NNE,23,2.0,2.0,100,0.00,,,0.00,0,Wunderground v.1.15,2013-07-26 09:30:00,
2013-07-26 05:40:00,61.7,61.7,29.99,NNE,13,2.0,2.0,100,0.00,,,0.00,0,Wunderground v.1.15,2013-07-26 09:40:00,
2013-07-26 05:50:00,61.8,61.8,29.99,NNW,334,1.0,1.0,100,0.00,,,0.00,0,Wunderground v.1.15,2013-07-26 09:50:00,
2013-07-26 05:55:00,61.8,61.8,30.00,North,1,3.0,3.0,100,0.00,,,0.00,0,Wunderground v.1.15,2013-07-26 09:55:00,
2013-07-26 06:10:00,61.8,61.8,29.99,North,6,2.0,2.0,100,0.00,,,0.00,0,Wunderground v.1.15,2013-07-26 10:10:00,
2013-07-26 06:20:00,61.8,61.8,29.98,NNE,16,6.0,6.0,100,0.00,,,0.00,0,Wunderground v.1.15,2013-07-26 10:20:00,
2013-07-26 06:30:00,61.7,61.7,29.98,NE,51,1.0,1.0,100,0.00,,,0.00,0,Wunderground v.1.15,2013-07-26 10:30:00,
2013-07-26 06:40:00,61.8,61.8,29.98,NNE,22,0.0,0.0,100,0.00,,,0.00,0,Wunderground v.1.15,2013-07-26 10:40:00,
2013-07-26 06:50:00,62.0,62.0,29.99,North,8,2.0,2.0,100,0.00,,,0.00,0,Wunderground v.1.15,2013-07-26 10:50:00,
2013-07-26 07:00:00,62.0,62.0,29.99,NNW,336,5.0,5.0,100,0.00,,,0.00,0,Wunderground v.1.15,2013-07-26 11:00:00,
2013-07-26 07:10:00,62.2,62.2,30.00,NNW,335,0.0,0.0,100,0.00,,,0.00,0,Wunderground v.1.15,2013-07-26 11:10:00,
2013-07-26 07:20:00,62.3,62.3,30.00,NNE,32,2.0,2.0,100,0.00,,,0.00,0,Wunderground v.1.15,2013-07-26 11:20:00,
2013-07-26 07:25:00,62.3,62.3,30.01,NNW,336,0.0,2.0,100,0.00,,,0.00,0,Wunderground v.1.15,2013-07-26 11:25:00,
2013-07-26 07:30:00,62.2,62.2,30.00,NW,321,0.0,0.0,100,0.00,,,0.00,0,Wunderground v.1.15,2013-07-26 11:30:00,
2013-07-26 07:40:00,62.0,62.0,30.00,North,4,0.0,0.0,100,0.00,,,0.00,0,Wunderground v.1.15,2013-07-26 11:40:00,
2013-07-26 07:50:00,62.4,62.4,30.00,NNE,16,0.0,0.0,100,0.00,,,0.00,0,Wunderground v.1.15,2013-07-26 11:50:00,
2013-07-26 08:00:00,62.6,62.6,29.99,NE,37,0.0,0.0,100,0.00,,,0.00,0,Wunderground v.1.15,2013-07-26 12:00:00,
2013-07-26 08:10:00,62.7,62.7,30.00,NE,37,0.0,0.0,100,0.00,,,0.00,0,Wunderground v.1.15,2013-07-26 12:10:00,
2013-07-26 08:20:00,62.6,62.6,30.00,ESE,109,4.0,4.0,100,0.00,,,0.00,0,Wunderground v.1.15,2013-07-26 12:20:00,
2013-07-26 08:30:00,62.7,62.7,30.00,NNE,23,4.0,4.0,100,0.00,,,0.00,0,Wunderground v.1.15,2013-07-26 12:30:00,
2013-07-26 08:40:00,62.9,62.9,30.00,NNE,26,0.0,0.0,100,0.00,,,0.00,0,Wunderground v.1.15,2013-07-26 12:40:00,
2013-07-26 08:50:00,63.2,63.2,29.99,NNE,19,2.0,2.0,100,0.00,,,0.00,0,Wunderground v.1.15,2013-07-26 12:50:00,
2013-07-26 08:55:00,63.6,-99.9,32.07,N/A,-32768,0.0,2.0,255,0.00,,,0.00,0,Wunderground v.1.15,2013-07-26 12:55:00,
2013-07-26 09:10:00,63.6,63.6,29.99,NNW,338,2.0,2.0,100,0.00,,,0.00,0,Wunderground v.1.15,2013-07-26 13:10:00,
2013-07-26 09:15:00,63.7,63.7,29.99,WNW,301,0.0,2.0,100,0.00,,,0.00,0,Wunderground v.1.15,2013-07-26 13:15:00,
2013-07-26 09:20:00,63.9,63.9,29.99,ENE,58,3.0,3.0,100,0.00,,,0.00,0,Wunderground v.1.15,2013-07-26 13:20:00,
2013-07-26 09:25:00,64.0,64.0,29.99,ENE,61,0.0,3.0,100,0.00,,,0.00,0,Wunderground v.1.15,2013-07-26 13:25:00,
2013-07-26 09:30:00,64.1,64.1,30.00,NNW,344,3.0,3.0,100,0.00,,,0.00,0,Wunderground v.1.15,2013-07-26 13:30:00,
2013-07-26 09:40:00,64.0,64.0,30.00,NNW,343,0.0,0.0,100,0.00,,,0.00,0,Wunderground v.1.15,2013-07-26 13:40:00,
2013-07-26 09:45:00,64.2,64.2,30.00,NNE,12,4.0,4.0,100,0.00,,,0.00,0,Wunderground v.1.15,2013-07-26 13:45:00,
2013-07-26 09:50:00,64.4,64.4,30.00,NNW,348,3.0,3.0,100,0.00,,,0.00,0,Wunderground v.1.15,2013-07-26 13:50:00,
2013-07-26 09:55:00,64.3,64.3,30.00,NNW,332,3.0,3.0,100,0.00,,,0.00,0,Wunderground v.1.15,2013-07-26 13:55:00,
2013-07-26 10:00:00,64.2,64.2,30.00,NNE,24,7.0,7.0,100,0.00,,,0.00,0,Wunderground v.1.15,2013-07-26 14:00:00,
2013-07-26 10:10:00,64.2,64.2,30.00,NNE,19,4.0,4.0,100,0.00,,,0.00,0,Wunderground v.1.15,2013-07-26 14:10:00,
2013-07-26 10:15:00,64.1,64.1,30.00,East,99,0.0,4.0,100,0.00,,,0.00,0,Wunderground v.1.15,2013-07-26 14:15:00,
2013-07-26 10:20:00,64.3,64.3,30.00,NNW,328,4.0,4.0,100,0.00,,,0.00,0,Wunderground v.1.15,2013-07-26 14:20:00,
2013-07-26 10:25:00,64.6,64.6,30.00,NE,36,3.0,4.0,100,0.00,,,0.00,0,Wunderground v.1.15,2013-07-26 14:25:00,
2013-07-26 10:30:00,64.8,64.8,30.01,ENE,77,1.0,1.0,100,0.00,,,0.00,0,Wunderground v.1.15,2013-07-26 14:30:00,
2013-07-26 10:35:00,65.1,65.1,30.00,NNW,331,4.0,4.0,100,0.00,,,0.00,0,Wunderground v.1.15,2013-07-26 14:35:00,
2013-07-26 10:45:00,65.7,65.7,30.00,North,355,4.0,4.0,100,0.00,,,0.00,0,Wunderground v.1.15,2013-07-26 14:45:00,
2013-07-26 10:50:00,66.0,66.0,30.00,NNE,13,6.0,6.0,100,0.00,,,0.00,0,Wunderground v.1.15,2013-07-26 14:50:00,
2013-07-26 10:55:00,66.0,66.0,30.01,NNE,31,2.0,6.0,100,0.00,,,0.00,0,Wunderground v.1.15,2013-07-26 14:55:00,
2013-07-26 11:00:00,66.1,66.1,30.00,North,356,3.0,3.0,100,0.00,,,0.00,0,Wunderground v.1.15,2013-07-26 15:00:00,
2013-07-26 11:10:00,66.3,65.7,30.00,NNE,16,0.0,0.0,98,0.00,,,0.00,0,Wunderground v.1.15,2013-07-26 15:10:00,
2013-07-26 11:15:00,66.3,66.0,30.00,NNW,331,7.0,7.0,99,0.00,,,0.00,0,Wunderground v.1.15,2013-07-26 15:15:00,
2013-07-26 11:25:00,66.6,65.7,30.00,North,7,0.0,1.0,97,0.00,,,0.00,0,Wunderground v.1.15,2013-07-26 15:25:00,
2013-07-26 11:30:00,66.6,65.7,30.01,North,1,4.0,4.0,97,0.00,,,0.00,0,Wunderground v.1.15,2013-07-26 15:30:00,
2013-07-26 11:35:00,66.6,65.4,30.01,NE,49,3.0,4.0,96,0.00,,,0.00,0,Wunderground v.1.15,2013-07-26 15:35:00,
2013-07-26 11:45:00,66.4,65.2,30.01,NNW,340,5.0,5.0,96,0.00,,,0.00,0,Wunderground v.1.15,2013-07-26 15:45:00,
2013-07-26 11:50:00,66.5,65.0,30.01,NNE,25,2.0,2.0,95,0.00,,,0.00,0,Wunderground v.1.15,2013-07-26 15:50:00,
2013-07-26 12:00:00,66.6,65.1,30.01,North,353,0.0,0.0,95,0.00,,,0.00,0,Wunderground v.1.15,2013-07-26 16:00:00,
2013-07-26 12:10:00,67.1,66.2,30.01,NE,41,1.0,1.0,97,0.00,,,0.00,0,Wunderground v.1.15,2013-07-26 16:10:00,
2013-07-26 12:15:00,67.3,66.4,30.01,NNE,12,3.0,3.0,97,0.00,,,0.00,0,Wunderground v.1.15,2013-07-26 16:15:00,
2013-07-26 12:20:00,67.3,66.1,30.01,North,349,1.0,1.0,96,0.00,,,0.00,0,Wunderground v.1.15,2013-07-26 16:20:00,
2013-07-26 12:25:00,67.4,66.5,30.01,North,350,0.0,1.0,97,0.00,,,0.00,0,Wunderground v.1.15,2013-07-26 16:25:00,
2013-07-26 12:30:00,67.7,66.5,30.01,NW,316,1.0,1.0,96,0.00,,,0.00,0,Wunderground v.1.15,2013-07-26 16:30:00,
2013-07-26 12:40:00,67.9,66.7,30.01,NNW,340,4.0,4.0,96,0.00,,,0.00,0,Wunderground v.1.15,2013-07-26 16:40:00,
2013-07-26 12:45:00,68.3,66.8,30.01,NNW,344,0.0,4.0,95,0.00,,,0.00,0,Wunderground v.1.15,2013-07-26 16:45:00,
2013-07-26 12:50:00,68.7,67.2,30.01,NNW,343,6.0,6.0,95,0.00,,,0.00,0,Wunderground v.1.15,2013-07-26 16:50:00,
2013-07-26 13:00:00,68.8,66.7,30.00,NNW,334,4.0,4.0,93,0.00,,,0.00,0,Wunderground v.1.15,2013-07-26 17:00:00,
2013-07-26 13:06:00,69.3,67.5,30.00,NNW,342,0.0,4.0,94,0.00,,,0.00,0,Wunderground v.1.15,2013-07-26 17:06:00,
2013-07-26 13:15:00,70.1,66.7,30.01,North,354,5.0,5.0,89,0.00,,,0.00,0,Wunderground v.1.15,2013-07-26 17:15:00,
2013-07-26 13:20:00,70.2,67.1,30.00,NNW,334,4.0,4.0,90,0.00,,,0.00,0,Wunderground v.1.15,2013-07-26 17:20:00,
2013-07-26 13:25:00,70.4,67.3,30.00,NNE,31,3.0,4.0,90,0.00,,,0.00,0,Wunderground v.1.15,2013-07-26 17:25:00,
2013-07-26 13:30:00,70.8,67.4,30.00,North,354,2.0,2.0,89,0.00,,,0.00,0,Wunderground v.1.15,2013-07-26 17:30:00,
2013-07-26 13:35:00,71.0,67.6,30.00,NNW,346,2.0,2.0,89,0.00,,,0.00,0,Wunderground v.1.15,2013-07-26 17:35:00,
2013-07-26 13:40:00,71.5,68.1,30.00,NNE,27,0.0,0.0,89,0.00,,,0.00,0,Wunderground v.1.15,2013-07-26 17:40:00,
2013-07-26 13:50:00,71.6,67.9,30.01,North,9,2.0,2.0,88,0.00,,,0.00,0,Wunderground v.1.15,2013-07-26 17:50:00,
2013-07-26 13:55:00,71.6,67.9,30.01,NNE,20,0.0,2.0,88,0.00,,,0.00,0,Wunderground v.1.15,2013-07-26 17:55:00,
2013-07-26 14:00:00,71.5,67.8,30.01,NNE,20,0.0,0.0,88,0.00,,,0.00,0,Wunderground v.1.15,2013-07-26 18:00:00,
2013-07-26 14:10:00,71.2,67.5,30.01,SW,231,0.0,0.0,88,0.00,,,0.00,0,Wunderground v.1.15,2013-07-26 18:10:00,
2013-07-26 14:15:00,70.8,67.7,30.01,WSW,237,0.0,0.0,90,0.00,,,0.00,0,Wunderground v.1.15,2013-07-26 18:15:00,
2013-07-26 14:20:00,70.5,67.4,30.01,WSW,237,0.0,0.0,90,0.00,,,0.00,0,Wunderground v.1.15,2013-07-26 18:20:00,
2013-07-26 14:25:00,70.4,67.3,30.01,WSW,237,0.0,0.0,90,0.00,,,0.00,0,Wunderground v.1.15,2013-07-26 18:25:00,
2013-07-26 14:30:00,70.4,68.0,30.01,NW,304,0.0,0.0,92,0.00,,,0.00,0,Wunderground v.1.15,2013-07-26 18:30:00,
2013-07-26 14:35:00,70.6,67.8,30.00,NW,304,0.0,0.0,91,0.00,,,0.00,0,Wunderground v.1.15,2013-07-26 18:35:00,
2013-07-26 14:40:00,70.7,68.6,30.00,WSW,247,0.0,0.0,93,0.00,,,0.00,0,Wunderground v.1.15,2013-07-26 18:40:00,
2013-07-26 14:50:00,70.4,68.9,30.00,WSW,247,0.0,0.0,95,0.00,,,0.00,0,Wunderground v.1.15,2013-07-26 18:50:00,
2013-07-26 14:55:00,70.3,68.5,30.00,WSW,247,0.0,0.0,94,0.00,,,0.00,0,Wunderground v.1.15,2013-07-26 18:55:00,
2013-07-26 15:00:00,70.2,68.7,30.00,WSW,247,0.0,0.0,95,0.00,,,0.00,0,Wunderground v.1.15,2013-07-26 19:00:00,
2013-07-26 15:10:00,70.4,69.5,30.00,WSW,247,1.0,1.0,97,0.00,,,0.00,0,Wunderground v.1.15,2013-07-26 19:10:00,
2013-07-26 15:15:00,70.3,69.1,30.00,WSW,246,0.0,1.0,96,0.00,,,0.00,0,Wunderground v.1.15,2013-07-26 19:15:00,
2013-07-26 15:20:00,70.2,69.6,30.00,WSW,246,1.0,1.0,98,0.00,,,0.00,0,Wunderground v.1.15,2013-07-26 19:20:00,
2013-07-26 15:30:00,70.5,69.6,30.00,SW,228,0.0,0.0,97,0.00,,,0.00,0,Wunderground v.1.15,2013-07-26 19:30:00,
2013-07-26 15:35:00,70.8,69.9,30.00,SW,214,0.0,0.0,97,0.00,,,0.00,0,Wunderground v.1.15,2013-07-26 19:35:00,
2013-07-26 15:40:00,71.1,70.2,30.00,WSW,245,2.0,2.0,97,0.00,,,0.00,0,Wunderground v.1.15,2013-07-26 19:40:00,
2013-07-26 15:45:00,71.1,69.6,30.00,WSW,249,2.0,2.0,95,0.00,,,0.00,0,Wunderground v.1.15,2013-07-26 19:45:00,
2013-07-26 15:50:00,71.2,69.7,30.00,SW,221,1.0,1.0,95,0.00,,,0.00,0,Wunderground v.1.15,2013-07-26 19:50:00,
2013-07-26 15:55:00,71.3,69.8,30.00,SSW,211,0.0,1.0,95,0.00,,,0.00,0,Wunderground v.1.15,2013-07-26 19:55:00,
2013-07-26 16:10:00,71.7,69.9,29.99,SW,235,0.0,0.0,94,0.00,,,0.00,0,Wunderground v.1.15,2013-07-26 20:10:00,
2013-07-26 16:15:00,71.9,70.1,29.99,SW,233,3.0,3.0,94,0.00,,,0.00,0,Wunderground v.1.15,2013-07-26 20:15:00,
2013-07-26 16:20:00,71.9,70.1,29.99,NW,310,0.0,0.0,94,0.00,,,0.00,0,Wunderground v.1.15,2013-07-26 20:20:00,
2013-07-26 16:25:00,72.3,70.5,29.99,West,265,1.0,1.0,94,0.00,,,0.00,0,Wunderground v.1.15,2013-07-26 20:25:00,
2013-07-26 16:30:00,72.6,70.5,29.99,South,182,0.0,0.0,93,0.00,,,0.00,0,Wunderground v.1.15,2013-07-26 20:30:00,
2013-07-26 16:40:00,73.4,70.6,29.99,WSW,247,3.0,3.0,91,0.00,,,0.00,0,Wunderground v.1.15,2013-07-26 20:40:00,
2013-07-26 16:45:00,73.5,71.0,29.98,WSW,245,0.0,3.0,92,0.00,,,0.00,0,Wunderground v.1.15,2013-07-26 20:45:00,
2013-07-26 16:50:00,73.6,70.5,29.98,SW,232,4.0,4.0,90,0.00,,,0.00,0,Wunderground v.1.15,2013-07-26 20:50:00,
2013-07-26 16:55:00,73.6,70.8,29.98,South,181,0.0,4.0,91,0.00,,,0.00,0,Wunderground v.1.15,2013-07-26 20:55:00,
2013-07-26 17:00:00,73.9,71.1,29.98,SW,217,0.0,0.0,91,0.00,,,0.00,0,Wunderground v.1.15,2013-07-26 21:00:00,
2013-07-26 17:10:00,74.5,70.7,29.98,WSW,241,0.0,0.0,88,0.00,,,0.00,0,Wunderground v.1.15,2013-07-26 21:10:00,
2013-07-26 17:15:00,74.9,69.7,29.98,WNW,291,2.0,2.0,84,0.00,,,0.00,0,Wunderground v.1.15,2013-07-26 21:15:00,
2013-07-26 17:20:00,75.1,69.6,29.98,SW,235,6.0,6.0,83,0.00,,,0.00,0,Wunderground v.1.15,2013-07-26 21:20:00,
2013-07-26 17:25:00,75.2,69.7,29.98,WSW,242,0.0,6.0,83,0.00,,,0.00,0,Wunderground v.1.15,2013-07-26 21:25:00,
2013-07-26 17:30:00,75.3,69.4,29.98,WSW,253,0.0,0.0,82,0.00,,,0.00,0,Wunderground v.1.15,2013-07-26 21:30:00,
2013-07-26 17:35:00,75.6,69.7,29.98,WSW,253,0.0,0.0,82,0.00,,,0.00,0,Wunderground v.1.15,2013-07-26 21:35:00,
2013-07-26 17:45:00,75.9,67.0,29.98,West,264,0.0,0.0,74,0.00,,,0.00,0,Wunderground v.1.15,2013-07-26 21:45:00,
2013-07-26 17:50:00,76.0,67.9,29.98,South,185,0.0,0.0,76,0.00,,,0.00,0,Wunderground v.1.15,2013-07-26 21:50:00,
2013-07-26 17:55:00,76.2,66.9,29.98,North,351,2.0,2.0,73,0.00,,,0.00,0,Wunderground v.1.15,2013-07-26 21:55:00,
2013-07-26 18:00:00,76.4,67.5,29.98,NW,315,0.0,0.0,74,0.00,,,0.00,0,Wunderground v.1.15,2013-07-26 22:00:00,
2013-07-26 18:10:00,76.8,66.7,29.98,NNW,331,0.0,0.0,71,0.00,,,0.00,0,Wunderground v.1.15,2013-07-26 22:10:00,
2013-07-26 18:20:00,76.9,66.8,29.99,NNW,341,0.0,0.0,71,0.00,,,0.00,0,Wunderground v.1.15,2013-07-26 22:20:00,
2013-07-26 18:25:00,76.9,66.8,29.99,NNW,337,0.0,0.0,71,0.00,,,0.00,0,Wunderground v.1.15,2013-07-26 22:25:00,
2013-07-26 18:30:00,77.0,67.3,29.99,NNW,337,0.0,0.0,72,0.00,,,0.00,0,Wunderground v.1.15,2013-07-26 22:30:00,
2013-07-26 18:35:00,77.0,66.9,29.99,NNW,333,0.0,0.0,71,0.00,,,0.00,0,Wunderground v.1.15,2013-07-26 22:35:00,
2013-07-26 18:40:00,76.9,66.8,29.99,North,359,3.0,3.0,71,0.00,,,0.00,0,Wunderground v.1.15,2013-07-26 22:40:00,
2013-07-26 18:45:00,76.8,66.7,29.99,NNW,332,0.0,3.0,71,0.00,,,0.00,0,Wunderground v.1.15,2013-07-26 22:45:00,
2013-07-26 18:55:00,76.5,66.4,29.99,NNW,333,0.0,2.0,71,0.00,,,0.00,0,Wunderground v.1.15,2013-07-26 22:55:00,
2013-07-26 19:00:00,76.4,66.7,29.99,North,349,2.0,2.0,72,0.00,,,0.00,0,Wunderground v.1.15,2013-07-26 23:00:00,
2013-07-26 19:10:00,76.0,66.7,29.99,NNW,332,0.0,0.0,73,0.00,,,0.00,0,Wunderground v.1.15,2013-07-26 23:10:00,
2013-07-26 19:15:00,75.8,66.9,30.00,NNW,332,0.0,0.0,74,0.00,,,0.00,0,Wunderground v.1.15,2013-07-26 23:15:00,
2013-07-26 19:20:00,75.5,67.4,30.00,NNW,332,0.0,0.0,76,0.00,,,0.00,0,Wunderground v.1.15,2013-07-26 23:20:00,
2013-07-26 19:30:00,75.0,66.9,30.00,NNW,343,0.0,0.0,76,0.00,,,0.00,0,Wunderground v.1.15,2013-07-26 23:30:00,
2013-07-26 19:35:00,74.7,67.0,30.00,NNW,343,0.0,0.0,77,0.00,,,0.00,0,Wunderground v.1.15,2013-07-26 23:35:00,
2013-07-26 19:40:00,74.5,66.8,30.00,NNW,343,0.0,0.0,77,0.00,,,0.00,0,Wunderground v.1.15,2013-07-26 23:40:00,
2013-07-26 19:45:00,74.3,66.6,30.00,NNW,343,0.0,0.0,77,0.00,,,0.00,0,Wunderground v.1.15,2013-07-26 23:45:00,
2013-07-26 19:50:00,74.2,66.5,30.00,NNW,343,0.0,0.0,77,0.00,,,0.00,0,Wunderground v.1.15,2013-07-26 23:50:00,
2013-07-26 20:00:00,73.8,66.5,30.00,NNW,343,0.0,0.0,78,0.00,,,0.00,0,Wunderground v.1.15,2013-07-27 00:00:00,
2013-07-26 20:06:00,73.5,66.9,30.00,NNW,343,0.0,0.0,80,0.00,,,0.00,0,Wunderground v.1.15,2013-07-27 00:06:00,
2013-07-26 20:15:00,73.0,66.8,30.01,NNW,343,0.0,0.0,81,0.00,,,0.00,0,Wunderground v.1.15,2013-07-27 00:15:00,
2013-07-26 20:20:00,72.7,66.5,30.01,NNW,343,0.0,0.0,81,0.00,,,0.00,0,Wunderground v.1.15,2013-07-27 00:20:00,
2013-07-26 20:25:00,72.5,66.7,30.01,NNW,343,0.0,0.0,82,0.00,,,0.00,0,Wunderground v.1.15,2013-07-27 00:25:00,
2013-07-26 20:35:00,72.0,66.2,30.01,NNW,343,0.0,0.0,82,0.00,,,0.00,0,Wunderground v.1.15,2013-07-27 00:35:00,
2013-07-26 20:40:00,71.7,66.3,30.01,NNW,343,0.0,0.0,83,0.00,,,0.00,0,Wunderground v.1.15,2013-07-27 00:40:00,
2013-07-26 20:45:00,71.3,65.9,30.01,NNW,343,0.0,0.0,83,0.00,,,0.00,0,Wunderground v.1.15,2013-07-27 00:45:00,
2013-07-26 20:50:00,71.2,65.8,30.01,NNW,343,0.0,0.0,83,0.00,,,0.00,0,Wunderground v.1.15,2013-07-27 00:50:00,
2013-07-26 20:55:00,71.0,66.3,30.01,NNW,343,0.0,0.0,85,0.00,,,0.00,0,Wunderground v.1.15,2013-07-27 00:55:00,
2013-07-26 21:00:00,70.8,66.1,30.01,NNW,343,0.0,0.0,85,0.00,,,0.00,0,Wunderground v.1.15,2013-07-27 01:00:00,
2013-07-26 21:10:00,70.0,66.9,30.02,NNW,343,0.0,0.0,90,0.00,,,0.00,0,Wunderground v.1.15,2013-07-27 01:10:00,
2013-07-26 21:15:00,69.6,66.9,30.02,NNW,343,0.0,0.0,91,0.00,,,0.00,0,Wunderground v.1.15,2013-07-27 01:15:00,
2013-07-26 21:25:00,69.3,66.9,30.02,NNW,343,0.0,0.0,92,0.00,,,0.00,0,Wunderground v.1.15,2013-07-27 01:25:00,
2013-07-26 21:30:00,68.9,67.1,30.02,SW,223,0.0,0.0,94,0.00,,,0.00,0,Wunderground v.1.15,2013-07-27 01:30:00,
2013-07-26 21:35:00,68.4,66.9,30.03,WSW,237,0.0,0.0,95,0.00,,,0.00,0,Wunderground v.1.15,2013-07-27 01:35:00,
2013-07-26 21:45:00,68.1,67.2,30.03,WSW,240,2.0,2.0,97,0.00,,,0.00,0,Wunderground v.1.15,2013-07-27 01:45:00,
2013-07-26 21:50:00,68.1,67.8,30.03,WSW,241,1.0,1.0,99,0.00,,,0.00,0,Wunderground v.1.15,2013-07-27 01:50:00,
2013-07-26 21:55:00,68.0,67.7,30.03,WSW,242,0.0,1.0,99,0.00,,,0.00,0,Wunderground v.1.15,2013-07-27 01:55:00,
2013-07-26 22:00:00,68.0,67.7,30.03,WSW,241,0.0,0.0,99,0.00,,,0.00,0,Wunderground v.1.15,2013-07-27 02:00:00,
2013-07-26 22:06:00,67.9,67.9,30.03,WSW,241,3.0,3.0,100,0.00,,,0.00,0,Wunderground v.1.15,2013-07-27 02:06:00,
2013-07-26 22:15:00,67.8,67.8,30.03,WSW,238,0.0,1.0,100,0.00,,,0.00,0,Wunderground v.1.15,2013-07-27 02:15:00,
2013-07-26 22:20:00,67.7,67.7,30.03,WSW,238,0.0,0.0,100,0.00,,,0.00,0,Wunderground v.1.15,2013-07-27 02:20:00,
2013-07-26 22:25:00,67.5,67.5,30.03,West,259,0.0,0.0,100,0.00,,,0.00,0,Wunderground v.1.15,2013-07-27 02:25:00,
2013-07-26 22:30:00,67.4,67.4,30.03,West,260,0.0,0.0,100,0.00,,,0.00,0,Wunderground v.1.15,2013-07-27 02:30:00,
2013-07-26 22:35:00,67.4,67.4,30.03,West,260,0.0,0.0,100,0.00,,,0.00,0,Wunderground v.1.15,2013-07-27 02:35:00,
2013-07-26 22:45:00,67.2,67.2,30.03,West,259,0.0,0.0,100,0.00,,,0.00,0,Wunderground v.1.15,2013-07-27 02:45:00,
2013-07-26 22:50:00,67.1,67.1,30.03,West,259,0.0,0.0,100,0.00,,,0.00,0,Wunderground v.1.15,2013-07-27 02:50:00,
2013-07-26 22:55:00,67.1,67.1,30.04,West,259,0.0,0.0,100,0.00,,,0.00,0,Wunderground v.1.15,2013-07-27 02:55:00,
2013-07-26 23:00:00,67.0,67.0,30.03,West,259,0.0,0.0,100,0.00,,,0.00,0,Wunderground v.1.15,2013-07-27 03:00:00,
2013-07-26 23:06:00,66.8,66.8,30.04,West,259,0.0,0.0,100,0.00,,,0.00,0,Wunderground v.1.15,2013-07-27 03:06:00,
2013-07-26 23:15:00,66.6,66.6,30.03,West,259,0.0,0.0,100,0.00,,,0.00,0,Wunderground v.1.15,2013-07-27 03:15:00,
2013-07-26 23:25:00,66.3,66.3,30.03,West,259,0.0,0.0,100,0.00,,,0.00,0,Wunderground v.1.15,2013-07-27 03:25:00,
2013-07-26 23:30:00,66.1,66.1,30.03,West,259,0.0,0.0,100,0.00,,,0.00,0,Wunderground v.1.15,2013-07-27 03:30:00,
2013-07-26 23:35:00,65.8,65.8,30.03,West,259,0.0,0.0,100,0.00,,,0.00,0,Wunderground v.1.15,2013-07-27 03:35:00,
2013-07-26 23:40:00,65.6,65.6,30.03,West,260,1.0,1.0,100,0.00,,,0.00,0,Wunderground v.1.15,2013-07-27 03:40:00,
2013-07-26 23:45:00,65.4,65.4,30.03,West,259,0.0,1.0,100,0.00,,,0.00,0,Wunderground v.1.15,2013-07-27 03:45:00,
2013-07-26 23:50:00,65.2,65.2,30.03,West,259,0.0,0.0,100,0.00,,,0.00,0,Wunderground v.1.15,2013-07-27 03:50:00,